Comanche, Montana
Current Conditions -  °F | °C
As of 12:53 PM on Friday 31 Oct 2014 (Local Time) from KBIL Reporting Station
Broken Clouds Broken Clouds  
Wind Chill: 54°   Ceiling: 24000
Heat Index: 54°   Visibility: 10mi
Dew Point: 28°   Wind: 0mph
Humidity: 37%   Direction: NA
Pressure: 29.87"   Gusts: NA
Location:  46.053°N, 108.734°W
Report Text: KBIL 311853Z 00000KT 10SM SCT110 BKN240 12/M02 A2987 RMK AO2 SLP119 ACSL DSNT SE SW-NW T01221022
Loading
Personal Weather Stations






























Interactive Weather Map
Tropical Storm Tracking
New forecast layout! Learn more

10-Day Weather Forecast

Advertisements
Track Severe Weather on mobile